createdAt,value
2018-07-12T00:01:24.379Z,15.03
2018-07-12T00:03:51.436Z,11.50
2018-07-12T00:06:17.937Z,16.13
2018-07-12T00:08:46.263Z,16.10
2018-07-12T00:11:12.726Z,16.70
2018-07-12T00:13:39.149Z,14.53
2018-07-12T00:16:06.488Z,15.23
2018-07-12T00:18:33.930Z,16.40
2018-07-12T00:21:02.287Z,16.00
2018-07-12T00:23:29.139Z,15.90
2018-07-12T00:25:55.512Z,17.40
2018-07-12T00:28:21.940Z,18.63
2018-07-12T00:30:48.966Z,16.30
2018-07-12T00:33:16.042Z,15.63
2018-07-12T00:35:42.443Z,15.20
2018-07-12T00:38:08.838Z,15.97
2018-07-12T00:40:35.297Z,15.57
2018-07-12T00:43:03.538Z,16.30
2018-07-12T00:45:30.927Z,15.97
2018-07-12T00:47:58.591Z,15.10
2018-07-12T00:50:25.961Z,16.20
2018-07-12T00:52:55.346Z,16.47
2018-07-12T00:55:21.824Z,16.17
2018-07-12T00:57:48.661Z,16.70
2018-07-12T01:00:15.211Z,15.90
2018-07-12T01:02:41.629Z,15.70
2018-07-12T01:05:08.109Z,15.73
2018-07-12T01:07:34.557Z,16.17
2018-07-12T01:10:00.944Z,14.30
2018-07-12T01:12:27.436Z,13.60
2018-07-12T01:14:53.844Z,13.20
2018-07-12T01:17:20.305Z,14.70
2018-07-12T01:19:47.769Z,14.20
2018-07-12T01:22:14.758Z,13.93
2018-07-12T01:24:41.210Z,17.17
2018-07-12T01:27:07.586Z,13.73
2018-07-12T01:29:35.360Z,16.07
2018-07-12T01:32:01.777Z,16.47
2018-07-12T01:34:28.205Z,16.27
2018-07-12T01:36:54.618Z,19.27
2018-07-12T01:39:21.072Z,18.17
2018-07-12T01:41:47.912Z,16.37
2018-07-12T01:44:14.466Z,14.40
2018-07-12T01:46:40.840Z,16.27
2018-07-12T01:49:07.229Z,15.70
2018-07-12T01:51:34.546Z,13.90
2018-07-12T01:54:00.968Z,16.90
2018-07-12T01:56:27.380Z,13.67
2018-07-12T01:58:53.784Z,15.60
2018-07-12T02:01:20.656Z,16.73
2018-07-12T02:03:47.095Z,13.10
2018-07-12T02:06:13.484Z,14.53
2018-07-12T02:08:39.959Z,12.50
2018-07-12T02:11:07.325Z,14.13
2018-07-12T02:13:34.948Z,13.50
2018-07-12T02:16:01.407Z,14.50
2018-07-12T02:18:28.685Z,12.10
2018-07-12T02:20:55.269Z,11.77
2018-07-12T02:23:23.412Z,12.37
2018-07-12T02:25:49.828Z,12.90
2018-07-12T02:28:17.183Z,10.90
2018-07-12T02:30:43.652Z,10.50
2018-07-12T02:33:10.705Z,12.33
2018-07-12T02:35:37.179Z,11.97
2018-07-12T02:38:03.650Z,15.30
2018-07-12T02:40:30.101Z,13.47
2018-07-12T02:42:57.480Z,12.73
2018-07-12T02:45:23.890Z,9.93
2018-07-12T02:47:50.309Z,10.87
2018-07-12T02:50:16.707Z,12.93
2018-07-12T02:52:43.172Z,14.80
2018-07-12T02:55:09.591Z,11.50
2018-07-12T02:57:36.501Z,13.90
2018-07-12T03:00:02.892Z,12.13
2018-07-12T03:02:29.436Z,13.57
2018-07-12T03:04:55.867Z,13.37
2018-07-12T03:07:22.326Z,13.07
2018-07-12T03:09:48.760Z,10.40
2018-07-12T03:12:15.961Z,13.00
2018-07-12T03:14:42.391Z,12.10
2018-07-12T03:17:09.767Z,13.00
2018-07-12T03:19:36.158Z,12.97
2018-07-12T03:22:02.580Z,13.23
2018-07-12T03:24:29.634Z,13.63
2018-07-12T03:26:56.701Z,13.37
2018-07-12T03:29:23.091Z,12.90
2018-07-12T03:31:49.521Z,14.20
2018-07-12T03:34:15.924Z,13.17
2018-07-12T03:36:42.301Z,13.13
2018-07-12T03:39:08.770Z,15.03
2018-07-12T03:41:35.152Z,13.40
2018-07-12T03:44:02.114Z,12.90
2018-07-12T03:46:28.517Z,14.40
2018-07-12T03:48:54.936Z,12.83
2018-07-12T03:51:21.381Z,12.00
2018-07-12T03:53:47.794Z,13.23
2018-07-12T03:56:15.489Z,14.60
2018-07-12T03:58:42.474Z,13.63
2018-07-12T04:01:09.608Z,14.30
2018-07-12T04:03:36.974Z,13.17
2018-07-12T04:06:03.392Z,13.70
2018-07-12T04:08:29.804Z,13.00
2018-07-12T04:10:56.266Z,14.70
2018-07-12T04:13:22.664Z,16.67
2018-07-12T04:15:49.068Z,12.30
2018-07-12T04:18:15.471Z,11.40
2018-07-12T04:20:41.880Z,15.63
2018-07-12T04:23:08.350Z,14.13
2018-07-12T04:25:34.871Z,12.90
2018-07-12T04:28:01.304Z,15.30
2018-07-12T04:30:28.697Z,13.67
2018-07-12T04:32:55.572Z,17.93
2018-07-12T04:35:22.048Z,17.80
2018-07-12T04:37:48.543Z,13.50
2018-07-12T04:40:14.999Z,13.70
2018-07-12T04:42:42.007Z,13.63
2018-07-12T04:45:09.379Z,18.10
2018-07-12T04:47:35.934Z,17.20
2018-07-12T04:50:02.865Z,15.63
2018-07-12T04:52:29.329Z,18.20
2018-07-12T04:54:56.343Z,16.63
2018-07-12T04:57:22.775Z,16.80
2018-07-12T04:59:49.196Z,15.30
2018-07-12T05:02:15.666Z,15.10
2018-07-12T05:04:42.056Z,13.93
2018-07-12T05:07:08.491Z,14.73
2018-07-12T05:09:35.624Z,15.40
2018-07-12T05:12:03.623Z,15.03
2018-07-12T05:14:32.042Z,11.73
2018-07-12T05:16:59.292Z,11.47
2018-07-12T05:19:26.652Z,12.13
2018-07-12T05:21:55.555Z,12.07
2018-07-12T05:24:28.884Z,11.33
2018-07-12T05:26:57.608Z,12.33
2018-07-12T05:29:24.181Z,13.53
2018-07-12T05:31:51.193Z,11.00
2018-07-12T05:34:17.632Z,8.70
2018-07-12T05:36:58.716Z,13.23
2018-07-12T05:39:26.225Z,12.50
2018-07-12T05:41:54.448Z,17.60
2018-07-12T05:44:21.980Z,11.53
2018-07-12T05:46:50.366Z,11.40
2018-07-12T05:49:18.032Z,11.57
2018-07-12T05:51:46.105Z,12.47
2018-07-12T05:54:14.319Z,11.30
2018-07-12T05:56:43.806Z,9.77
2018-07-12T05:59:11.354Z,10.80
2018-07-12T06:01:50.971Z,13.57
2018-07-12T06:04:19.480Z,14.93
2018-07-12T06:06:47.090Z,13.50
2018-07-12T06:09:14.659Z,11.70
2018-07-12T06:11:42.253Z,8.47
2018-07-12T06:14:09.846Z,9.70
2018-07-12T06:16:38.524Z,9.70
2018-07-12T06:19:06.038Z,11.87
2018-07-12T06:21:33.997Z,10.60
2018-07-12T06:24:01.520Z,10.00
2018-07-12T06:26:28.989Z,11.37
2018-07-12T06:28:56.577Z,9.77
2018-07-12T06:31:24.161Z,10.37
2018-07-12T06:33:51.745Z,9.93
2018-07-12T06:36:19.999Z,8.50
2018-07-12T06:38:47.539Z,7.40
2018-07-12T06:41:15.846Z,11.77
2018-07-12T06:43:44.474Z,6.73
2018-07-12T06:46:12.052Z,9.03
2018-07-12T06:48:40.271Z,8.13
2018-07-12T06:51:08.830Z,7.23
2018-07-12T06:53:37.206Z,6.17
2018-07-12T06:56:05.387Z,5.30
2018-07-12T06:58:34.580Z,5.77
2018-07-12T07:01:02.993Z,6.20
2018-07-12T07:03:31.117Z,6.67
2018-07-12T07:05:58.568Z,5.83
2018-07-12T07:08:26.042Z,7.33
2018-07-12T07:10:53.785Z,6.70
2018-07-12T07:13:21.395Z,6.30
2018-07-12T07:15:48.971Z,7.10
2018-07-12T07:18:16.481Z,6.93
2018-07-12T07:20:44.692Z,5.20
2018-07-12T07:23:12.168Z,6.13
2018-07-12T07:25:40.185Z,4.87
2018-07-12T07:28:07.695Z,4.40
2018-07-12T07:30:37.160Z,4.40
2018-07-12T07:33:05.253Z,4.13
2018-07-12T07:35:33.472Z,4.23
2018-07-12T07:38:00.912Z,4.53
2018-07-12T07:40:28.505Z,3.90
2018-07-12T07:42:56.116Z,3.77
2018-07-12T07:45:23.765Z,3.50
2018-07-12T07:47:51.337Z,6.10
2018-07-12T07:50:18.812Z,3.37
2018-07-12T07:52:48.646Z,4.37
2018-07-12T07:55:16.214Z,3.30
2018-07-12T07:57:43.697Z,8.27
2018-07-12T08:00:11.226Z,3.77
2018-07-12T08:02:38.835Z,3.77
2018-07-12T08:05:06.886Z,4.83
2018-07-12T08:07:35.108Z,4.37
2018-07-12T08:10:03.957Z,5.87
2018-07-12T08:12:32.496Z,4.90
2018-07-12T08:15:00.810Z,5.80
2018-07-12T08:17:28.543Z,4.50
2018-07-12T08:19:57.049Z,7.23
2018-07-12T08:22:25.230Z,4.00
2018-07-12T08:24:54.600Z,3.33
2018-07-12T08:27:22.112Z,3.53
2018-07-12T08:29:49.661Z,4.17
2018-07-12T08:32:18.841Z,4.27
2018-07-12T08:34:47.425Z,3.97
2018-07-12T08:37:15.472Z,3.27
2018-07-12T08:39:44.189Z,3.27
2018-07-12T08:42:13.479Z,3.73
2018-07-12T08:44:41.644Z,3.23
2018-07-12T08:47:09.914Z,3.33
2018-07-12T08:49:37.490Z,3.30
2018-07-12T08:52:05.204Z,2.83
2018-07-12T08:54:35.005Z,3.37
2018-07-12T08:57:03.692Z,2.80
2018-07-12T08:59:31.252Z,3.80
2018-07-12T09:01:58.854Z,9.90
2018-07-12T09:04:27.076Z,4.07
2018-07-12T09:06:55.282Z,3.97
2018-07-12T09:09:23.737Z,4.20
2018-07-12T09:11:52.384Z,3.77
2018-07-12T09:14:20.474Z,3.67
2018-07-12T09:16:49.232Z,3.70
2018-07-12T09:19:16.880Z,4.30
2018-07-12T09:21:45.642Z,3.73
2018-07-12T09:24:13.096Z,5.93
2018-07-12T09:26:40.706Z,3.50
2018-07-12T09:29:08.291Z,3.17
2018-07-12T09:31:35.805Z,3.17
2018-07-12T09:34:03.476Z,3.40
2018-07-12T09:36:31.605Z,3.00
2018-07-12T09:38:59.156Z,5.43
2018-07-12T09:41:27.380Z,3.57
2018-07-12T09:43:54.953Z,4.07
2018-07-12T09:46:24.712Z,3.50
2018-07-12T09:48:52.532Z,4.23
2018-07-12T09:51:20.601Z,3.90
2018-07-12T09:53:49.399Z,5.13
2018-07-12T09:56:16.945Z,5.80
2018-07-12T09:58:44.472Z,4.50
2018-07-12T10:01:19.093Z,3.03
2018-07-12T10:03:49.289Z,3.10
2018-07-12T10:06:22.431Z,3.20
2018-07-12T10:08:55.180Z,6.07
2018-07-12T10:11:28.497Z,3.83
2018-07-12T10:14:03.910Z,4.67
2018-07-12T10:16:38.381Z,3.50
2018-07-12T10:19:06.502Z,4.20
2018-07-12T10:21:34.809Z,3.17
2018-07-12T10:24:03.145Z,3.00
2018-07-12T10:26:32.164Z,3.10
2018-07-12T10:28:59.698Z,3.00
2018-07-12T10:31:27.082Z,2.93
2018-07-12T10:33:55.743Z,3.83
2018-07-12T10:36:23.364Z,2.80
2018-07-12T10:38:50.969Z,3.50
2018-07-12T10:41:18.467Z,3.10
2018-07-12T10:43:45.957Z,3.80
2018-07-12T10:46:13.456Z,3.70
2018-07-12T10:48:41.041Z,5.37
2018-07-12T10:51:09.292Z,5.03
2018-07-12T10:53:36.761Z,5.37
2018-07-12T10:56:05.317Z,5.97
2018-07-12T10:58:32.809Z,3.70
2018-07-12T11:01:01.487Z,3.00
2018-07-12T11:03:29.139Z,2.80
2018-07-12T11:05:57.311Z,2.70
2018-07-12T11:08:25.558Z,2.60
2018-07-12T11:10:52.969Z,3.00
2018-07-12T11:13:31.981Z,2.87
2018-07-12T11:15:59.552Z,3.63
2018-07-12T11:18:27.120Z,2.70
2018-07-12T11:20:54.663Z,4.60
2018-07-12T11:23:22.150Z,3.33
2018-07-12T11:25:50.225Z,3.37
2018-07-12T11:28:17.872Z,3.50
2018-07-12T11:30:45.365Z,4.07
2018-07-12T11:33:31.388Z,4.27
2018-07-12T11:35:58.960Z,4.80
2018-07-12T11:38:27.061Z,4.83
2018-07-12T11:40:54.587Z,2.83
2018-07-12T11:43:23.260Z,3.47
2018-07-12T11:45:50.915Z,4.03
2018-07-12T11:48:18.466Z,2.97
2018-07-12T11:50:46.016Z,2.97
2018-07-12T11:53:15.008Z,2.63
2018-07-12T11:55:43.109Z,2.60
2018-07-12T11:58:11.866Z,2.50
2018-07-12T12:00:40.010Z,2.63
2018-07-12T12:03:10.529Z,3.07
2018-07-12T12:05:39.448Z,2.67
2018-07-12T12:08:07.082Z,2.37
2018-07-12T12:10:34.824Z,2.40
2018-07-12T12:13:02.931Z,2.40
2018-07-12T12:15:31.925Z,2.33
2018-07-12T12:17:59.442Z,3.60
2018-07-12T12:20:27.317Z,2.60
2018-07-12T12:22:54.833Z,2.47
2018-07-12T12:25:23.238Z,2.97
2018-07-12T12:27:50.956Z,2.87
2018-07-12T12:30:18.471Z,2.93
2018-07-12T12:32:46.087Z,2.83
2018-07-12T12:35:13.642Z,3.47
2018-07-12T12:37:41.328Z,3.33
2018-07-12T12:40:09.832Z,3.30
2018-07-12T12:42:38.125Z,4.07
2018-07-12T12:45:05.686Z,2.87
2018-07-12T12:47:33.194Z,2.63
2018-07-12T12:50:01.546Z,3.13
2018-07-12T12:52:29.132Z,3.10
2018-07-12T12:54:56.604Z,3.10
2018-07-12T12:57:24.109Z,4.53
2018-07-12T12:59:51.746Z,3.70
2018-07-12T13:02:19.413Z,4.20
2018-07-12T13:04:47.587Z,3.90
2018-07-12T13:07:15.088Z,6.20
2018-07-12T13:09:43.239Z,6.27
2018-07-12T13:12:10.849Z,6.23
2018-07-12T13:14:38.985Z,3.47
2018-07-12T13:17:06.643Z,3.27
2018-07-12T13:19:34.327Z,3.23
2018-07-12T13:22:02.695Z,3.30
2018-07-12T13:24:31.167Z,3.27
2018-07-12T13:26:59.601Z,3.63
2018-07-12T13:29:27.114Z,6.00
2018-07-12T13:31:54.657Z,5.20
2018-07-12T13:34:22.169Z,4.10
2018-07-12T13:36:50.770Z,3.47
2018-07-12T13:39:18.311Z,5.40
2018-07-12T13:41:45.950Z,5.30
2018-07-12T13:44:21.597Z,4.00
2018-07-12T13:46:50.539Z,3.37
2018-07-12T13:49:18.582Z,3.43
2018-07-12T13:51:47.417Z,5.60
2018-07-12T13:54:16.179Z,5.57
2018-07-12T13:56:44.901Z,3.80
2018-07-12T13:59:12.952Z,3.17
2018-07-12T14:01:42.435Z,3.80
2018-07-12T14:04:10.764Z,3.00
2018-07-12T14:06:39.831Z,3.73
2018-07-12T14:09:10.682Z,5.23
2018-07-12T14:11:38.859Z,3.00
2018-07-12T14:14:07.248Z,3.40
2018-07-12T14:16:34.790Z,3.00
2018-07-12T14:19:02.561Z,7.40
2018-07-12T14:21:30.667Z,3.73
2018-07-12T14:23:59.040Z,4.97
2018-07-12T14:26:26.882Z,4.43
2018-07-12T14:28:54.572Z,3.97
2018-07-12T14:31:22.849Z,3.67
2018-07-12T14:33:53.286Z,3.87
2018-07-12T14:36:21.815Z,3.77
2018-07-12T14:38:50.234Z,3.83
2018-07-12T14:41:19.061Z,3.60
2018-07-12T14:43:46.590Z,5.07
2018-07-12T14:46:14.061Z,4.87
2018-07-12T14:48:43.021Z,4.93
2018-07-12T14:51:11.315Z,8.93
2018-07-12T14:53:40.678Z,5.90
2018-07-12T14:56:08.902Z,3.67
2018-07-12T14:58:38.057Z,6.67
2018-07-12T15:01:07.216Z,4.50
2018-07-12T15:03:35.768Z,3.93
2018-07-12T15:06:03.946Z,5.43
2018-07-12T15:08:31.732Z,6.50
2018-07-12T15:10:59.869Z,9.87
2018-07-12T15:13:28.577Z,5.50
2018-07-12T15:15:56.328Z,4.10
2018-07-12T15:18:24.435Z,5.60
2018-07-12T15:20:52.128Z,4.90
2018-07-12T15:23:19.655Z,13.63
2018-07-12T15:25:48.945Z,4.90
2018-07-12T15:28:17.440Z,5.90
2018-07-12T15:30:45.281Z,4.63
2018-07-12T15:33:13.914Z,5.23
2018-07-12T15:35:41.526Z,5.90
2018-07-12T15:38:10.320Z,4.03
2018-07-12T15:40:37.815Z,4.20
2018-07-12T15:43:08.079Z,4.10
2018-07-12T15:45:36.525Z,3.70
2018-07-12T15:48:06.173Z,4.30
2018-07-12T15:50:34.706Z,4.23
2018-07-12T15:53:02.523Z,4.77
2018-07-12T15:55:31.163Z,7.80
2018-07-12T15:57:58.757Z,4.60
2018-07-12T16:00:26.253Z,4.83
2018-07-12T16:02:54.420Z,5.70
2018-07-12T16:05:22.014Z,5.43
2018-07-12T16:07:53.127Z,6.20
2018-07-12T16:10:21.309Z,6.63
2018-07-12T16:12:48.899Z,6.73
2018-07-12T16:15:16.759Z,5.23
2018-07-12T16:17:44.981Z,5.70
2018-07-12T16:20:14.454Z,6.60
2018-07-12T16:22:41.979Z,5.33
2018-07-12T16:25:09.577Z,14.07
2018-07-12T16:27:37.485Z,5.03
2018-07-12T16:30:05.580Z,7.33
2018-07-12T16:32:33.226Z,6.00
2018-07-12T16:35:02.096Z,6.80
2018-07-12T16:37:30.255Z,5.67
2018-07-12T16:39:57.932Z,5.00
2018-07-12T16:42:29.619Z,6.77
2018-07-12T16:44:58.521Z,5.30
2018-07-12T16:47:27.601Z,6.67
2018-07-12T16:49:56.073Z,7.57
2018-07-12T16:52:24.248Z,7.60
2018-07-12T16:54:53.947Z,5.97
2018-07-12T16:57:21.969Z,6.50
2018-07-12T16:59:49.564Z,5.33
2018-07-12T17:02:17.289Z,5.90
2018-07-12T17:04:45.541Z,6.60
2018-07-12T17:07:13.156Z,11.40
2018-07-12T17:09:40.739Z,6.63
2018-07-12T17:12:08.976Z,8.40
2018-07-12T17:14:36.607Z,6.73
2018-07-12T17:17:04.734Z,7.53
2018-07-12T17:19:32.871Z,6.87
2018-07-12T17:22:01.671Z,7.13
2018-07-12T17:24:30.098Z,5.83
2018-07-12T17:26:59.092Z,8.93
2018-07-12T17:29:26.702Z,7.17
2018-07-12T17:31:54.350Z,7.10
2018-07-12T17:34:22.090Z,8.37
2018-07-12T17:36:51.817Z,7.73
2018-07-12T17:39:20.432Z,8.03
2018-07-12T17:41:48.662Z,7.00
2018-07-12T17:44:16.891Z,8.60
2018-07-12T17:46:45.127Z,7.03
2018-07-12T17:49:14.517Z,9.17
2018-07-12T17:51:42.240Z,6.97
2018-07-12T17:54:09.843Z,7.03
2018-07-12T17:56:39.893Z,7.50
2018-07-12T17:59:08.206Z,9.20
2018-07-12T18:01:36.948Z,8.20
2018-07-12T18:04:08.653Z,9.23
2018-07-12T18:06:39.098Z,8.03
2018-07-12T18:09:11.256Z,9.83
2018-07-12T18:11:44.820Z,8.70
2018-07-12T18:14:15.001Z,9.20
2018-07-12T18:16:43.624Z,9.57
2018-07-12T18:19:11.895Z,8.73
2018-07-12T18:21:47.000Z,8.87
2018-07-12T18:24:15.549Z,8.50
2018-07-12T18:26:43.648Z,11.80
2018-07-12T18:29:11.895Z,9.63
2018-07-12T18:31:42.305Z,9.53
2018-07-12T18:34:11.566Z,9.93
2018-07-12T18:36:40.782Z,11.93
2018-07-12T18:39:14.627Z,9.37
2018-07-12T18:41:49.642Z,9.77
2018-07-12T18:44:18.649Z,10.50
2018-07-12T18:46:48.235Z,11.03
2018-07-12T18:49:15.809Z,9.03
2018-07-12T18:51:43.320Z,10.17
2018-07-12T18:54:14.796Z,10.33
2018-07-12T18:56:42.382Z,13.23
2018-07-12T18:59:09.903Z,11.40
2018-07-12T19:01:38.591Z,8.87
2018-07-12T19:04:06.846Z,10.37
2018-07-12T19:06:34.718Z,10.40
2018-07-12T19:09:02.488Z,10.10
2018-07-12T19:11:30.060Z,8.40
2018-07-12T19:13:58.155Z,10.30
2018-07-12T19:16:25.635Z,8.37
2018-07-12T19:18:53.183Z,12.20
2018-07-12T19:21:22.209Z,8.53
2018-07-12T19:23:49.993Z,13.67
2018-07-12T19:26:17.550Z,13.57
2018-07-12T19:28:46.647Z,11.93
2018-07-12T19:31:14.797Z,13.97
2018-07-12T19:33:43.048Z,12.43
2018-07-12T19:36:10.909Z,12.10
2018-07-12T19:38:38.534Z,10.67
2018-07-12T19:41:07.036Z,17.63
2018-07-12T19:43:34.776Z,13.23
2018-07-12T19:46:02.952Z,11.93
2018-07-12T19:48:30.570Z,14.37
2018-07-12T19:50:58.227Z,12.53
2018-07-12T19:53:26.883Z,14.33
2018-07-12T19:55:54.717Z,15.17
2018-07-12T19:58:22.770Z,12.77
2018-07-12T20:00:50.378Z,14.47
2018-07-12T20:03:18.857Z,16.60
2018-07-12T20:05:46.383Z,11.90
2018-07-12T20:08:14.608Z,14.20
2018-07-12T20:10:42.131Z,14.50
2018-07-12T20:13:09.743Z,11.97
2018-07-12T20:15:37.796Z,13.03
2018-07-12T20:18:05.494Z,19.00
2018-07-12T20:20:33.103Z,15.53
2018-07-12T20:23:00.619Z,13.53
2018-07-12T20:25:28.242Z,14.53
2018-07-12T20:27:55.894Z,16.63
2018-07-12T20:30:23.473Z,16.63
2018-07-12T20:32:51.923Z,12.50
2018-07-12T20:35:21.799Z,15.10
2018-07-12T20:37:49.352Z,16.50
2018-07-12T20:40:16.986Z,14.37
2018-07-12T20:42:45.867Z,13.70
2018-07-12T20:45:14.585Z,12.60
2018-07-12T20:47:42.919Z,16.00
2018-07-12T20:50:10.599Z,12.17
2018-07-12T20:52:38.166Z,18.40
2018-07-12T20:55:06.867Z,15.40
2018-07-12T20:57:36.642Z,17.33
2018-07-12T21:00:05.044Z,13.27
2018-07-12T21:02:34.097Z,11.40
2018-07-12T21:05:01.827Z,14.60
2018-07-12T21:07:29.357Z,13.80
2018-07-12T21:09:57.489Z,12.13
2018-07-12T21:12:25.057Z,17.60
2018-07-12T21:14:53.413Z,13.80
2018-07-12T21:17:21.863Z,12.47
2018-07-12T21:19:49.460Z,11.60
2018-07-12T21:22:17.607Z,13.03
2018-07-12T21:24:45.769Z,15.70
2018-07-12T21:27:13.282Z,15.77
2018-07-12T21:29:40.808Z,14.90
2018-07-12T21:32:08.499Z,16.00
2018-07-12T21:34:36.347Z,15.27
2018-07-12T21:37:04.179Z,13.87
2018-07-12T21:39:31.629Z,14.57
2018-07-12T21:41:59.174Z,12.90
2018-07-12T21:44:27.159Z,15.77
2018-07-12T21:46:54.707Z,13.40
2018-07-12T21:49:22.148Z,13.27
2018-07-12T21:51:49.770Z,17.90
2018-07-12T21:54:17.801Z,17.00
2018-07-12T21:56:45.930Z,14.20
2018-07-12T21:59:14.972Z,16.20
2018-07-12T22:01:42.422Z,13.70
2018-07-12T22:04:10.122Z,16.50
2018-07-12T22:07:46.776Z,14.33
2018-07-12T22:10:14.425Z,13.37
2018-07-12T22:12:41.948Z,13.57
2018-07-12T22:15:10.089Z,20.50
2018-07-12T22:17:38.263Z,13.50
2018-07-12T22:20:05.864Z,14.33
2018-07-12T22:22:33.369Z,13.23
2018-07-12T22:25:00.896Z,14.83
2018-07-12T22:27:29.042Z,12.77
2018-07-12T22:29:56.563Z,12.13
2018-07-12T22:32:24.657Z,12.93
2018-07-12T22:34:53.388Z,11.17
2018-07-12T22:37:22.772Z,12.70
2018-07-12T22:39:50.953Z,12.47
2018-07-12T22:42:18.489Z,11.33
2018-07-12T22:44:46.117Z,11.77
2018-07-12T22:47:14.407Z,11.67
2018-07-12T22:49:41.965Z,10.63
2018-07-12T22:52:11.510Z,11.40
2018-07-12T22:54:39.580Z,11.67
2018-07-12T22:57:07.848Z,12.70
2018-07-12T22:59:37.060Z,11.83
2018-07-12T23:02:05.270Z,11.67
2018-07-12T23:04:33.762Z,11.97
2018-07-12T23:07:02.352Z,11.63
2018-07-12T23:09:30.820Z,14.73
2018-07-12T23:11:58.351Z,12.70
2018-07-12T23:14:25.905Z,12.77
2018-07-12T23:16:53.415Z,11.63
2018-07-12T23:19:23.118Z,12.93
2018-07-12T23:21:51.304Z,11.80
2018-07-12T23:24:20.130Z,11.00
2018-07-12T23:26:47.789Z,10.93
2018-07-12T23:29:16.629Z,12.17
2018-07-12T23:31:44.205Z,10.60
2018-07-12T23:34:13.644Z,11.60
2018-07-12T23:36:42.685Z,12.63
2018-07-12T23:39:11.313Z,11.87
2018-07-12T23:41:40.421Z,11.50
2018-07-12T23:44:09.456Z,11.70
2018-07-12T23:46:38.151Z,10.37
2018-07-12T23:49:05.806Z,9.53
2018-07-12T23:51:33.785Z,10.33
2018-07-12T23:54:01.300Z,10.03
2018-07-12T23:56:29.216Z,12.00
2018-07-12T23:58:57.832Z,10.30
